Terminal Aerodrome Forecast
Issued by NWS

Home | Current Version | Previous Version | Text Only | Print | Product List | Glossary On
Versions: 1 2 3 4 5 6 7 8 9 10 11 12 13 14 15 16 17 18 19
884
FTUS43 KICT 150932 AAA
TAFCNU
TAF AMD
KCNU 150932Z 1510/1606 05005KT 6SM -FZRA BR SCT005 OVC007
      TEMPO 1510/1514 3SM FZRA BR OVC005
     FM151500 06005KT 5SM -DZ BR SCT005 OVC007=

USA.gov is the U.S. government's official web portal to all federal, state and local government web resources and services.